Data for 11/22/2005

Time Sea-Level Adjusted Pressure Absolute Pressure Temperature Relative Humidity Dew Point   
(mb) (inHg) (mb) (inHg) (C) (F) (%) (C) (F)
00:05 1027 30.33 856 25.28 2.8 37 58 -4.7 23.6
00:10 1026 30.3 856 25.28 2.6 36.7 59 -4.6 23.8
00:15 1026 30.3 856 25.28 2.5 36.6 59 -4.7 23.6
00:20 1026 30.3 856 25.28 2.7 36.9 58 -4.8 23.3
00:25 1026 30.3 855 25.25 3.1 37.5 57 -4.6 23.7
00:30 1026 30.3 855 25.25 3.1 37.6 55 -5 23
00:35 1026 30.3 855 25.25 2.9 37.2 56 -5 23.1
00:40 1026 30.3 855 25.25 2.6 36.6 58 -4.9 23.2
00:45 1026 30.3 855 25.25 2.4 36.3 60 -4.7 23.5
00:50 1026 30.3 855 25.25 2.2 35.9 59 -5 23
00:55 1026 30.3 855 25.25 2.1 35.8 60 -5 23.1
01:00 1026 30.3 855 25.25 2.1 35.7 60 -4.9 23.2
01:05 1026 30.3 855 25.25 2.2 36 59 -4.9 23.2
01:10 1026 30.3 855 25.25 2.6 36.7 60 -4.5 24
01:15 1026 30.3 855 25.25 2.6 36.6 58 -5 23
01:20 1026 30.3 855 25.25 2.6 36.6 57 -5 23
01:25 1026 30.3 855 25.25 3.1 37.6 55 -5.1 22.8
01:30 1026 30.3 855 25.25 3.2 37.8 55 -4.9 23.2
01:35 1026 30.3 855 25.25 2.3 36.1 61 -4.5 23.8
01:40 1026 30.3 855 25.25 1.1 34.1 65 -4.8 23.3
01:45 1026 30.3 855 25.25 1.2 34.2 64 -4.9 23.2
01:50 1026 30.3 855 25.25 1.7 35 60 -5.2 22.6
01:55 1026 30.3 855 25.25 1.9 35.5 60 -4.9 23.1
02:00 1026 30.3 855 25.25 1.8 35.2 62 -4.8 23.4
02:05 1026 30.3 855 25.25 2.1 35.9 60 -4.8 23.4
02:10 1026 30.3 855 25.25 2.1 35.8 61 -4.7 23.6
02:15 1026 30.3 855 25.25 1.9 35.4 63 -4.5 23.9
02:20 1026 30.3 855 25.25 1.8 35.2 62 -4.6 23.7
02:25 1026 30.3 855 25.25 2.1 35.8 61 -4.6 23.7
02:30 1026 30.3 855 25.25 2.3 36.1 61 -4.5 23.8
02:35 1026 30.3 855 25.25 2.4 36.3 60 -4.6 23.7
02:40 1026 30.3 855 25.25 2.5 36.4 59 -4.8 23.4
02:45 1026 30.3 855 25.25 2.8 37 57 -4.9 23.2
02:50 1026 30.3 855 25.25 3.1 37.6 56 -4.7 23.5
02:55 1026 30.3 855 25.25 3.2 37.8 55 -4.9 23.2
03:00 1026 30.3 855 25.25 3.3 38 55 -4.9 23.2
03:05 1026 30.3 855 25.25 3.3 37.9 54 -5.2 22.6
03:10 1026 30.3 855 25.25 3.2 37.7 56 -4.8 23.4
03:15 1026 30.3 855 25.25 2.8 37.1 57 -4.9 23.3
03:20 1026 30.3 855 25.25 2.6 36.6 58 -4.8 23.4
03:25 1026 30.3 855 25.25 2.7 36.9 58 -4.8 23.4
03:30 1026 30.3 855 25.25 2.8 37 57 -4.9 23.2
03:35 1026 30.3 855 25.25 2.6 36.8 58 -4.8 23.3
03:40 1026 30.3 855 25.25 1.6 34.9 62 -5 23.1
03:45 1026 30.3 855 25.25 1.5 34.6 61 -5.2 22.7
03:50 1026 30.3 855 25.25 1.3 34.3 63 -5 22.9
03:55 1026 30.3 855 25.25 0.9 33.6 65 -5 23
04:00 1026 30.3 855 25.25 0.3 32.5 67 -5.2 22.6
04:05 1026 30.3 855 25.25 1 33.7 63 -5.2 22.6
04:10 1026 30.3 855 25.25 1.8 35.2 62 -4.8 23.3
04:15 1026 30.3 855 25.25 2.2 36 60 -4.7 23.5
04:20 1026 30.3 855 25.25 2.5 36.6 59 -4.8 23.4
04:25 1026 30.3 855 25.25 2.8 37 58 -4.7 23.6
04:30 1026 30.3 855 25.25 2.3 36.2 59 -4.9 23.2
04:35 1026 30.3 855 25.25 2 35.6 60 -5 23
04:40 1026 30.3 855 25.25 0.9 33.6 65 -5 23
04:45 1026 30.3 855 25.25 0.2 32.4 68 -5.1 22.8
04:50 1026 30.3 855 25.25 0 32.1 67 -5.3 22.5
04:55 1026 30.3 855 25.25 -0.1 31.7 68 -5.4 22.3
05:00 1026 30.3 855 25.25 0.4 32.7 64 -5.7 21.7
05:05 1026 30.3 855 25.25 1.3 34.3 60 -5.6 21.9
05:10 1026 30.3 855 25.25 1.3 34.4 62 -5.1 22.8
05:15 1026 30.3 855 25.25 0.9 33.6 63 -5.3 22.5
05:20 1026 30.3 855 25.25 1 33.8 62 -5.5 22.1
05:25 1026 30.3 855 25.25 1 33.7 63 -5.3 22.4
05:30 1026 30.3 855 25.25 0.9 33.7 63 -5.4 22.2
05:35 1026 30.3 855 25.25 0.9 33.6 63 -5.5 22.2
05:40 1026 30.3 855 25.25 0.9 33.6 62 -5.6 21.9
05:45 1026 30.3 855 25.25 1.3 34.4 61 -5.4 22.3
05:50 1026 30.3 855 25.25 1.8 35.3 59 -5.3 22.4
05:55 1026 30.3 855 25.25 1.7 35.1 60 -5.2 22.7
06:00 1026 30.3 855 25.25 0.9 33.7 65 -5 23
06:05 1026 30.3 855 25.25 0.2 32.4 68 -5.1 22.9
06:10 1026 30.3 855 25.25 0.1 32.2 68 -5.1 22.7
06:15 1026 30.3 855 25.25 0 32 68 -5.2 22.7
06:20 1026 30.3 855 25.25 -0.2 31.7 69 -5.2 22.6
06:25 1026 30.3 855 25.25 -0.1 31.7 68 -5.3 22.4
06:30 1026 30.3 855 25.25 -0 32 68 -5.2 22.6
06:35 1026 30.3 855 25.25 -0.1 31.9 68 -5.2 22.6
06:40 1026 30.3 855 25.25 -0.1 31.9 68 -5.2 22.6
06:45 1026 30.3 855 25.25 0 32.1 68 -5.2 22.6
06:50 1026 30.3 855 25.25 0.2 32.3 67 -5.3 22.5
06:55 1026 30.3 855 25.25 0.1 32.2 67 -5.3 22.5
07:00 1026 30.3 855 25.25 0.1 32.2 66 -5.6 22
07:05 1026 30.3 855 25.25 0.5 33 64 -5.6 22
07:10 1026 30.3 855 25.25 0.5 32.9 65 -5.3 22.5
07:15 1026 30.3 855 25.25 0.6 33 64 -5.4 22.2
07:20 1026 30.3 855 25.25 0.7 33.2 64 -5.4 22.3
07:25 1026 30.3 855 25.25 1.1 33.9 62 -5.3 22.4
07:30 1026 30.3 855 25.25 0.6 33.1 65 -5.1 22.8
07:35 1026 30.3 855 25.25 0.5 32.9 65 -5.3 22.5
07:40 1026 30.3 855 25.25 0.1 32.3 66 -5.4 22.3
07:45 1026 30.3 855 25.25 -0.1 31.8 66 -5.6 21.9
07:50 1026 30.3 855 25.25 -0.1 31.8 66 -5.7 21.8
07:55 1026 30.3 855 25.25 0.8 33.5 63 -5.5 22.1
08:00 1026 30.3 855 25.25 1.1 34 62 -5.3 22.4
08:05 1026 30.3 855 25.25 1 33.7 63 -5.4 22.3
08:10 1026 30.3 855 25.25 1.3 34.3 61 -5.4 22.2
08:15 1026 30.3 855 25.25 2 35.6 57 -5.5 22
08:20 1026 30.3 855 25.25 2.7 36.9 55 -5.4 22.3
08:25 1026 30.3 855 25.25 3.4 38.1 53 -5.4 22.3
08:30 1026 30.3 855 25.25 4 39.2 51 -5.2 22.7
08:35 1026 30.3 855 25.25 3.6 38.6 53 -5.1 22.8
08:40 1026 30.3 855 25.25 3.3 37.9 53 -5.3 22.5
08:45 1026 30.3 855 25.25 3.5 38.4 53 -5.1 22.9
08:50 1026 30.3 855 25.25 3.8 38.9 53 -4.8 23.3
08:55 1026 30.3 855 25.25 3.7 38.6 53 -5 22.9
09:00 1026 30.3 855 25.25 3.5 38.3 52 -5.3 22.4
09:05 1026 30.3 855 25.25 3.6 38.5 53 -5.1 22.7
09:10 1026 30.3 855 25.25 4.1 39.3 51 -5.2 22.7
09:15 1026 30.3 855 25.25 4.4 40 51 -4.9 23.2
09:20 1026 30.3 855 25.25 4.8 40.6 51 -4.5 24
09:25 1026 30.3 855 25.25 4.5 40.2 52 -4.6 23.7
09:30 1026 30.3 855 25.25 4.5 40.1 50 -5 23.1
09:35 1026 30.3 855 25.25 4.7 40.4 51 -4.5 23.9
09:40 1026 30.3 855 25.25 5.3 41.6 49 -4.5 24
09:45 1026 30.3 855 25.25 5.7 42.2 48 -4.3 24.2
09:50 1026 30.3 855 25.25 5.6 42 47 -4.8 23.3
09:55 1026 30.3 855 25.25 5.6 42.1 47 -4.7 23.5
10:00 1026 30.3 855 25.25 5.8 42.4 48 -4.3 24.2
10:05 1026 30.3 855 25.25 5.9 42.7 48 -4.2 24.5
10:10 1026 30.3 855 25.25 6.2 43.2 46 -4.4 24.1
10:15 1026 30.3 855 25.25 6.8 44.3 45 -4.2 24.4
10:20 1026 30.3 855 25.25 7.1 44.8 44 -4.3 24.2
10:25 1026 30.3 855 25.25 7.3 45.1 44 -4.2 24.4
10:30 1026 30.3 855 25.25 7.3 45.2 46 -3.6 25.5
10:35 1026 30.3 855 25.25 7.3 45.1 45 -3.8 25.2
10:40 1025 30.27 855 25.25 7.2 45 45 -3.9 25
10:45 1025 30.27 855 25.25 7.5 45.4 44 -4 24.9
10:50 1025 30.27 854 25.22 7.5 45.5 43 -4.2 24.4
10:55 1025 30.27 854 25.22 7.7 45.8 43 -4.1 24.6
11:00 1025 30.27 854 25.22 7.7 45.8 45 -3.4 25.8
11:05 1025 30.27 854 25.22 7.3 45.2 45 -3.7 25.3
11:10 1025 30.27 854 25.22 7.9 46.2 42 -4.3 24.3
11:15 1025 30.27 854 25.22 8.4 47.1 40 -4.6 23.8
11:20 1025 30.27 854 25.22 9 48.3 37 -4.9 23.2
11:25 1025 30.27 854 25.22 9.2 48.6 34 -5.6 21.9
11:30 1025 30.27 854 25.22 8.9 47.9 36 -5.2 22.6
11:35 1025 30.27 854 25.22 8.9 48 39 -4.4 24.1
11:40 1025 30.27 854 25.22 8.8 47.8 39 -4.4 24.1
11:45 1025 30.27 854 25.22 9.3 48.8 37 -4.5 23.9
11:50 1025 30.27 854 25.22 8.9 48 39 -4.2 24.5
11:55 1025 30.27 854 25.22 9 48.2 39 -4.1 24.7
12:00 1024 30.24 854 25.22 9.1 48.4 38 -4.4 24
12:05 1025 30.27 854 25.22 9.7 49.4 38 -4 24.7
12:10 1024 30.24 854 25.22 9.9 49.8 38 -3.9 25
12:15 1024 30.24 854 25.22 9.7 49.5 39 -3.5 25.7
12:20 1024 30.24 854 25.22 9.7 49.4 39 -3.5 25.7
12:25 1024 30.24 854 25.22 9.7 49.4 39 -3.5 25.8
12:30 1024 30.24 854 25.22 10 49.9 38 -3.5 25.6
12:35 1024 30.24 854 25.22 10.1 50.1 39 -3.3 26.1
12:40 1024 30.24 854 25.22 9.9 49.9 40 -3 26.6
12:45 1024 30.24 854 25.22 9.7 49.5 40 -3 26.5
12:50 1024 30.24 853 25.19 9.7 49.5 40 -3.1 26.4
12:55 1024 30.24 854 25.22 10 50.1 39 -3.2 26.3
13:00 1024 30.24 853 25.19 10.6 51.1 38 -3.1 26.5
13:05 1024 30.24 853 25.19 10.4 50.7 39 -2.8 27
13:10 1024 30.24 853 25.19 10.2 50.4 40 -2.8 27
13:15 1024 30.24 853 25.19 10.4 50.8 40 -2.7 27.2
13:20 1024 30.24 853 25.19 10.7 51.2 39 -2.6 27.4
13:25 1024 30.24 853 25.19 10.9 51.5 39 -2.6 27.2
13:30 1024 30.24 853 25.19 11.1 51.9 39 -2.3 27.8
13:35 1024 30.24 853 25.19 10.9 51.6 39 -2.6 27.4
13:40 1024 30.24 853 25.19 10.6 51.2 40 -2.3 27.9
13:45 1024 30.24 853 25.19 10.9 51.6 39 -2.5 27.5
13:50 1024 30.24 853 25.19 11 51.7 40 -2.1 28.2
13:55 1024 30.24 853 25.19 11.1 52 39 -2.4 27.6
14:00 1024 30.24 853 25.19 11.3 52.3 39 -2 28.3
14:05 1024 30.24 853 25.19 11.3 52.4 39 -2.2 28.1
14:10 1024 30.24 853 25.19 11.2 52.2 39 -2.1 28.2
14:15 1024 30.24 853 25.19 11.5 52.6 38 -2.3 27.8
14:20 1024 30.24 853 25.19 11.6 52.8 38 -2.3 27.9
14:25 1024 30.24 853 25.19 11.5 52.7 38 -2.3 27.8
14:30 1024 30.24 853 25.19 11.5 52.6 37 -2.6 27.4
14:35 1024 30.24 853 25.19 11.4 52.5 38 -2.4 27.6
14:40 1024 30.24 853 25.19 11.2 52.2 38 -2.5 27.5
14:45 1024 30.24 853 25.19 11.3 52.4 37 -2.7 27.2
14:50 1024 30.24 853 25.19 11.1 51.9 38 -2.6 27.3
14:55 1024 30.24 853 25.19 11.2 52.2 37 -2.9 26.8
15:00 1023 30.21 853 25.19 11.3 52.3 37 -2.7 27.2
15:05 1023 30.21 853 25.19 11.2 52.1 38 -2.6 27.4
15:10 1023 30.21 853 25.19 11.3 52.3 37 -2.9 26.9
15:15 1023 30.21 853 25.19 11.4 52.5 38 -2.4 27.7
15:20 1023 30.21 853 25.19 11.1 52.1 39 -2.1 28.2
15:25 1023 30.21 853 25.19 10.7 51.3 41 -2 28.5
15:30 1023 30.21 853 25.19 10.8 51.4 41 -1.9 28.5
15:35 1023 30.21 853 25.19 10.8 51.4 42 -1.6 29.2
15:40 1023 30.21 852 25.16 10.6 51 43 -1.5 29.2
15:45 1023 30.21 852 25.16 10.8 51.4 43 -1.3 29.7
15:50 1023 30.21 852 25.16 10.5 50.8 44 -1.3 29.7
15:55 1023 30.21 852 25.16 10.4 50.7 43 -1.6 29.1
16:00 1023 30.21 852 25.16 10.4 50.7 43 -1.5 29.4
16:05 1023 30.21 852 25.16 10.6 51.2 42 -1.6 29.1
16:10 1023 30.21 852 25.16 10.9 51.6 42 -1.6 29.1
16:15 1023 30.21 852 25.16 11 51.8 42 -1.5 29.4
16:20 1023 30.21 852 25.16 10.9 51.7 42 -1.4 29.5
16:25 1023 30.21 852 25.16 10.8 51.5 42 -1.4 29.5
16:30 1023 30.21 852 25.16 10.5 50.9 44 -1.3 29.7
16:35 1023 30.21 852 25.16 9.9 49.9 45 -1.3 29.7
16:40 1023 30.21 852 25.16 9.1 48.4 49 -0.9 30.4
16:45 1023 30.21 852 25.16 8.8 47.8 49 -1.4 29.4
16:50 1023 30.21 852 25.16 8.5 47.3 49 -1.6 29.1
16:55 1023 30.21 852 25.16 8.2 46.8 50 -1.6 29.1
17:00 1023 30.21 852 25.16 7.8 46 49 -2.1 28.2
17:05 1023 30.21 852 25.16 7.7 45.9 47 -2.7 27.1
17:10 1023 30.21 852 25.16 7.1 44.7 51 -2.5 27.5
17:15 1023 30.21 852 25.16 6 42.9 51 -3.2 26.2
17:20 1023 30.21 853 25.19 5.5 42 53 -3.4 26
17:25 1023 30.21 852 25.16 5.2 41.3 52 -3.8 25.1
17:30 1023 30.21 852 25.16 4.7 40.5 54 -3.8 25.1
17:35 1023 30.21 852 25.16 4.9 40.8 53 -3.8 25.1
17:40 1023 30.21 852 25.16 5.4 41.7 51 -3.8 25.1
17:45 1023 30.21 852 25.16 5.3 41.6 51 -4.1 24.7
17:50 1023 30.21 852 25.16 5.2 41.4 50 -4.3 24.3
17:55 1023 30.21 852 25.16 5.1 41.2 49 -4.7 23.5
18:00 1023 30.21 852 25.16 4.9 40.8 51 -4.4 24.1
18:05 1023 30.21 852 25.16 4.9 40.7 51 -4.4 24
18:10 1023 30.21 852 25.16 4.4 39.9 52 -4.5 23.8
18:15 1023 30.21 852 25.16 4 39.2 54 -4.4 24
18:20 1023 30.21 852 25.16 3.3 38 58 -4.2 24.4
18:25 1023 30.21 852 25.16 3.2 37.8 54 -5.2 22.6
18:30 1023 30.21 852 25.16 4.5 40.1 50 -5.1 22.9
18:35 1023 30.21 852 25.16 4.5 40.1 52 -4.5 23.9
18:40 1023 30.21 852 25.16 4.5 40.1 53 -4.4 24.1
18:45 1023 30.21 852 25.16 4.7 40.4 54 -3.8 25.1
18:50 1023 30.21 852 25.16 4.9 40.8 48 -5.1 22.9
18:55 1023 30.21 852 25.16 4.9 40.8 48 -5.2 22.7
19:00 1023 30.21 852 25.16 5.2 41.4 47 -5.2 22.7
19:05 1023 30.21 852 25.16 5.2 41.4 50 -4.5 23.9
19:10 1023 30.21 852 25.16 5 41 48 -5.1 22.8
19:15 1023 30.21 852 25.16 5 41 47 -5.3 22.4
19:20 1023 30.21 852 25.16 4.7 40.5 48 -5.4 22.4
19:25 1023 30.21 852 25.16 4.6 40.3 51 -4.6 23.7
19:30 1023 30.21 852 25.16 4.4 39.9 52 -4.5 23.9
19:35 1023 30.21 852 25.16 4.4 40 53 -4.3 24.2
19:40 1023 30.21 852 25.16 4.7 40.4 52 -4.2 24.4
19:45 1023 30.21 852 25.16 4.9 40.8 50 -4.8 23.4
19:50 1023 30.21 852 25.16 5.1 41.2 48 -4.9 23.1
19:55 1023 30.21 852 25.16 4.9 40.8 50 -4.7 23.5
20:00 1023 30.21 852 25.16 4.7 40.5 50 -4.8 23.3
20:05 1023 30.21 852 25.16 4.8 40.7 48 -5.4 22.3
20:10 1023 30.21 852 25.16 4.9 40.8 47 -5.5 22
20:15 1023 30.21 852 25.16 4.6 40.2 48 -5.6 21.8
20:20 1023 30.21 852 25.16 4.4 39.9 52 -4.6 23.8
20:25 1023 30.21 852 25.16 3.5 38.3 52 -5.3 22.5
20:30 1023 30.21 852 25.16 3.6 38.5 52 -5.3 22.4
20:35 1023 30.21 852 25.16 4.3 39.7 49 -5.6 22
20:40 1023 30.21 852 25.16 4 39.3 50 -5.5 22.2
20:45 1023 30.21 852 25.16 3.7 38.6 51 -5.5 22.1
20:50 1023 30.21 852 25.16 3.5 38.2 52 -5.4 22.3
20:55 1023 30.21 852 25.16 3.6 38.5 52 -5.4 22.2
21:00 1023 30.21 852 25.16 3.8 38.8 51 -5.4 22.4
21:05 1023 30.21 852 25.16 3.6 38.6 53 -5.2 22.7
21:10 1023 30.21 852 25.16 3.2 37.8 54 -5.1 22.8
21:15 1023 30.21 852 25.16 2.9 37.3 55 -5.3 22.5
21:20 1023 30.21 852 25.16 3.1 37.5 54 -5.4 22.3
21:25 1023 30.21 852 25.16 2.5 36.6 57 -5.1 22.8
21:30 1023 30.21 852 25.16 2.8 37 54 -5.7 21.8
21:35 1023 30.21 852 25.16 3.2 37.7 54 -5.2 22.6
21:40 1023 30.21 852 25.16 2.9 37.3 54 -5.4 22.3
21:45 1023 30.21 852 25.16 2.6 36.7 55 -5.5 22.2
21:50 1023 30.21 852 25.16 2.2 36 58 -5.3 22.5
21:55 1023 30.21 852 25.16 2.2 35.9 56 -5.6 21.9
22:00 1023 30.21 852 25.16 2.3 36.2 55 -5.8 21.5
22:05 1023 30.21 852 25.16 2.9 37.2 54 -5.5 22.1
22:10 1023 30.21 852 25.16 3 37.4 53 -5.7 21.7
22:15 1023 30.21 852 25.16 3.1 37.7 53 -5.5 22.2
22:20 1023 30.21 852 25.16 2.9 37.3 53 -5.7 21.8
22:25 1023 30.21 852 25.16 3 37.3 53 -5.7 21.7
22:30 1023 30.21 852 25.16 2.9 37.2 53 -5.7 21.7
22:35 1023 30.21 852 25.16 2.8 37 54 -5.6 22
22:40 1023 30.21 852 25.16 3 37.5 51 -6.2 20.8
22:45 1023 30.21 852 25.16 3.7 38.6 48 -6.2 20.8
22:50 1023 30.21 852 25.16 3.9 39.1 48 -6.1 20.9
22:55 1023 30.21 852 25.16 4 39.2 48 -5.9 21.4
23:00 1023 30.21 852 25.16 4 39.2 47 -6.4 20.5
23:05 1023 30.21 852 25.16 4.2 39.5 48 -5.9 21.4
23:10 1023 30.21 852 25.16 3.7 38.7 49 -6 21.2
23:15 1023 30.21 852 25.16 3.5 38.2 50 -6.1 21.1
23:20 1023 30.21 852 25.16 3.7 38.7 48 -6.2 20.9
23:25 1023 30.21 852 25.16 3.9 39 48 -6.3 20.7
23:30 1023 30.21 852 25.16 3.8 38.8 49 -5.9 21.4
23:35 1023 30.21 852 25.16 3.5 38.3 51 -5.7 21.7
23:40 1023 30.21 852 25.16 3.6 38.4 50 -6 21.2
23:45 1023 30.21 852 25.16 3.7 38.6 50 -5.9 21.4
23:50 1023 30.21 852 25.16 3.6 38.4 50 -5.8 21.6
23:55 1023 30.21 852 25.16 3.5 38.4 50 -5.9 21.4
24:00 1023 30.21 852 25.16 3.6 38.4 50 -5.8 21.6